sensor_id;sensor_type;location;lat;lon;timestamp;P1;durP1;ratioP1;P2;durP2;ratioP2
12048;SDS011;6085;49.452;8.502;2023-10-09T00:00:06;3.83;;;2.45;;
12048;SDS011;6085;49.452;8.502;2023-10-09T00:04:32;5.13;;;2.70;;
12048;SDS011;6085;49.452;8.502;2023-10-09T00:08:36;5.15;;;2.88;;
12048;SDS011;6085;49.452;8.502;2023-10-09T00:12:39;4.18;;;3.40;;
12048;SDS011;6085;49.452;8.502;2023-10-09T00:16:44;6.20;;;4.82;;
12048;SDS011;6085;49.452;8.502;2023-10-09T00:20:49;7.85;;;4.13;;
12048;SDS011;6085;49.452;8.502;2023-10-09T00:24:55;5.63;;;3.80;;
12048;SDS011;6085;49.452;8.502;2023-10-09T00:29:15;8.27;;;4.68;;
12048;SDS011;6085;49.452;8.502;2023-10-09T00:33:23;7.70;;;4.00;;
12048;SDS011;6085;49.452;8.502;2023-10-09T00:37:25;4.72;;;2.83;;
12048;SDS011;6085;49.452;8.502;2023-10-09T00:41:34;3.55;;;2.53;;
12048;SDS011;6085;49.452;8.502;2023-10-09T00:45:36;4.15;;;3.08;;
12048;SDS011;6085;49.452;8.502;2023-10-09T00:49:41;5.40;;;2.70;;
12048;SDS011;6085;49.452;8.502;2023-10-09T00:53:45;5.25;;;3.28;;
12048;SDS011;6085;49.452;8.502;2023-10-09T00:57:51;4.47;;;2.75;;
12048;SDS011;6085;49.452;8.502;2023-10-09T01:01:54;5.63;;;2.22;;
12048;SDS011;6085;49.452;8.502;2023-10-09T01:05:59;4.32;;;2.75;;
12048;SDS011;6085;49.452;8.502;2023-10-09T01:10:16;2.50;;;1.92;;
12048;SDS011;6085;49.452;8.502;2023-10-09T01:14:19;3.15;;;2.60;;
12048;SDS011;6085;49.452;8.502;2023-10-09T01:18:22;6.25;;;2.22;;
12048;SDS011;6085;49.452;8.502;2023-10-09T01:22:33;6.30;;;2.65;;
12048;SDS011;6085;49.452;8.502;2023-10-09T01:26:37;3.17;;;2.55;;
12048;SDS011;6085;49.452;8.502;2023-10-09T01:30:46;4.20;;;1.83;;
12048;SDS011;6085;49.452;8.502;2023-10-09T01:34:48;4.82;;;2.25;;
12048;SDS011;6085;49.452;8.502;2023-10-09T01:38:50;6.32;;;2.33;;
12048;SDS011;6085;49.452;8.502;2023-10-09T01:42:55;4.45;;;2.50;;
12048;SDS011;6085;49.452;8.502;2023-10-09T01:46:57;7.93;;;2.50;;
12048;SDS011;6085;49.452;8.502;2023-10-09T01:50:59;4.00;;;2.22;;
12048;SDS011;6085;49.452;8.502;2023-10-09T01:55:05;4.50;;;2.72;;
12048;SDS011;6085;49.452;8.502;2023-10-09T01:59:29;3.38;;;2.40;;
12048;SDS011;6085;49.452;8.502;2023-10-09T02:03:31;4.25;;;2.97;;
12048;SDS011;6085;49.452;8.502;2023-10-09T02:07:37;5.65;;;3.25;;
12048;SDS011;6085;49.452;8.502;2023-10-09T02:11:44;6.15;;;3.10;;
12048;SDS011;6085;49.452;8.502;2023-10-09T02:15:47;5.13;;;3.53;;
12048;SDS011;6085;49.452;8.502;2023-10-09T02:19:59;8.75;;;3.65;;
12048;SDS011;6085;49.452;8.502;2023-10-09T02:24:16;6.60;;;3.13;;
12048;SDS011;6085;49.452;8.502;2023-10-09T02:28:42;3.80;;;2.40;;
12048;SDS011;6085;49.452;8.502;2023-10-09T02:32:45;3.35;;;2.10;;
12048;SDS011;6085;49.452;8.502;2023-10-09T02:36:53;3.83;;;2.60;;
12048;SDS011;6085;49.452;8.502;2023-10-09T02:41:04;5.00;;;2.28;;
12048;SDS011;6085;49.452;8.502;2023-10-09T02:45:20;3.40;;;1.98;;
12048;SDS011;6085;49.452;8.502;2023-10-09T02:49:30;5.88;;;3.08;;
12048;SDS011;6085;49.452;8.502;2023-10-09T02:53:35;5.28;;;2.97;;
12048;SDS011;6085;49.452;8.502;2023-10-09T02:57:37;3.35;;;2.25;;
12048;SDS011;6085;49.452;8.502;2023-10-09T03:01:41;3.45;;;2.65;;
12048;SDS011;6085;49.452;8.502;2023-10-09T03:05:45;5.55;;;2.67;;
12048;SDS011;6085;49.452;8.502;2023-10-09T03:09:50;5.72;;;3.17;;
12048;SDS011;6085;49.452;8.502;2023-10-09T03:13:52;6.32;;;3.00;;
12048;SDS011;6085;49.452;8.502;2023-10-09T03:17:56;5.45;;;3.25;;
12048;SDS011;6085;49.452;8.502;2023-10-09T03:22:00;4.15;;;2.90;;
12048;SDS011;6085;49.452;8.502;2023-10-09T03:26:02;3.78;;;3.17;;
12048;SDS011;6085;49.452;8.502;2023-10-09T03:30:05;4.57;;;2.30;;
12048;SDS011;6085;49.452;8.502;2023-10-09T03:34:10;2.72;;;2.13;;
12048;SDS011;6085;49.452;8.502;2023-10-09T03:38:13;3.55;;;2.72;;
12048;SDS011;6085;49.452;8.502;2023-10-09T03:42:17;3.38;;;2.47;;
12048;SDS011;6085;49.452;8.502;2023-10-09T03:46:20;3.00;;;2.47;;
12048;SDS011;6085;49.452;8.502;2023-10-09T03:50:26;4.30;;;2.47;;
12048;SDS011;6085;49.452;8.502;2023-10-09T03:54:37;3.78;;;2.50;;
12048;SDS011;6085;49.452;8.502;2023-10-09T03:58:39;3.80;;;2.60;;
12048;SDS011;6085;49.452;8.502;2023-10-09T04:02:43;3.35;;;2.50;;
12048;SDS011;6085;49.452;8.502;2023-10-09T04:06:45;6.57;;;3.67;;
12048;SDS011;6085;49.452;8.502;2023-10-09T04:10:48;6.13;;;3.10;;
12048;SDS011;6085;49.452;8.502;2023-10-09T04:14:53;7.70;;;3.55;;
12048;SDS011;6085;49.452;8.502;2023-10-09T04:18:57;15.65;;;3.58;;
12048;SDS011;6085;49.452;8.502;2023-10-09T04:23:05;4.82;;;2.20;;
12048;SDS011;6085;49.452;8.502;2023-10-09T04:27:08;5.03;;;2.70;;
12048;SDS011;6085;49.452;8.502;2023-10-09T04:31:10;4.53;;;2.42;;
12048;SDS011;6085;49.452;8.502;2023-10-09T04:35:14;4.63;;;2.55;;
12048;SDS011;6085;49.452;8.502;2023-10-09T04:39:24;2.63;;;2.03;;
12048;SDS011;6085;49.452;8.502;2023-10-09T04:43:38;3.55;;;2.20;;
12048;SDS011;6085;49.452;8.502;2023-10-09T04:47:44;2.22;;;1.80;;
12048;SDS011;6085;49.452;8.502;2023-10-09T04:51:58;3.85;;;2.10;;
12048;SDS011;6085;49.452;8.502;2023-10-09T04:56:06;5.18;;;2.05;;
12048;SDS011;6085;49.452;8.502;2023-10-09T05:00:17;8.05;;;2.53;;
12048;SDS011;6085;49.452;8.502;2023-10-09T05:04:43;5.38;;;2.72;;
12048;SDS011;6085;49.452;8.502;2023-10-09T05:08:48;3.53;;;2.42;;
12048;SDS011;6085;49.452;8.502;2023-10-09T05:12:51;4.68;;;2.20;;
12048;SDS011;6085;49.452;8.502;2023-10-09T05:16:59;4.82;;;2.55;;
12048;SDS011;6085;49.452;8.502;2023-10-09T05:21:06;3.70;;;2.38;;
12048;SDS011;6085;49.452;8.502;2023-10-09T05:25:23;4.50;;;1.98;;
12048;SDS011;6085;49.452;8.502;2023-10-09T05:29:55;4.05;;;2.50;;
12048;SDS011;6085;49.452;8.502;2023-10-09T05:34:12;4.38;;;2.45;;
12048;SDS011;6085;49.452;8.502;2023-10-09T05:38:20;4.22;;;2.63;;
12048;SDS011;6085;49.452;8.502;2023-10-09T05:42:25;3.65;;;1.88;;
12048;SDS011;6085;49.452;8.502;2023-10-09T05:46:43;2.50;;;2.15;;
12048;SDS011;6085;49.452;8.502;2023-10-09T05:51:08;3.95;;;2.22;;
12048;SDS011;6085;49.452;8.502;2023-10-09T05:55:37;3.30;;;2.17;;
12048;SDS011;6085;49.452;8.502;2023-10-09T06:00:05;2.65;;;1.90;;
12048;SDS011;6085;49.452;8.502;2023-10-09T06:04:27;3.13;;;2.28;;
12048;SDS011;6085;49.452;8.502;2023-10-09T06:08:49;4.63;;;2.65;;
12048;SDS011;6085;49.452;8.502;2023-10-09T06:13:08;7.53;;;2.88;;
12048;SDS011;6085;49.452;8.502;2023-10-09T06:17:24;7.03;;;3.40;;
12048;SDS011;6085;49.452;8.502;2023-10-09T06:21:44;7.07;;;4.15;;
12048;SDS011;6085;49.452;8.502;2023-10-09T06:26:04;5.43;;;3.45;;
12048;SDS011;6085;49.452;8.502;2023-10-09T06:30:23;4.78;;;3.55;;
12048;SDS011;6085;49.452;8.502;2023-10-09T06:34:27;7.55;;;3.53;;
12048;SDS011;6085;49.452;8.502;2023-10-09T06:38:37;3.63;;;2.72;;
12048;SDS011;6085;49.452;8.502;2023-10-09T06:42:52;4.55;;;2.60;;
12048;SDS011;6085;49.452;8.502;2023-10-09T06:46:55;6.68;;;2.80;;
12048;SDS011;6085;49.452;8.502;2023-10-09T06:51:08;7.50;;;2.70;;
12048;SDS011;6085;49.452;8.502;2023-10-09T06:55:17;4.85;;;2.65;;
12048;SDS011;6085;49.452;8.502;2023-10-09T06:59:32;4.72;;;2.63;;
12048;SDS011;6085;49.452;8.502;2023-10-09T07:04:04;4.20;;;2.20;;
12048;SDS011;6085;49.452;8.502;2023-10-09T07:08:18;4.07;;;2.38;;
12048;SDS011;6085;49.452;8.502;2023-10-09T07:12:33;4.65;;;2.65;;
12048;SDS011;6085;49.452;8.502;2023-10-09T07:16:42;7.10;;;2.33;;
12048;SDS011;6085;49.452;8.502;2023-10-09T07:20:57;2.85;;;2.20;;
12048;SDS011;6085;49.452;8.502;2023-10-09T07:25:11;4.93;;;2.58;;
12048;SDS011;6085;49.452;8.502;2023-10-09T07:29:30;5.28;;;2.42;;
12048;SDS011;6085;49.452;8.502;2023-10-09T07:33:47;4.45;;;1.50;;
12048;SDS011;6085;49.452;8.502;2023-10-09T07:37:56;7.28;;;2.22;;
12048;SDS011;6085;49.452;8.502;2023-10-09T07:41:58;2.83;;;2.42;;
12048;SDS011;6085;49.452;8.502;2023-10-09T07:46:17;4.32;;;2.42;;
12048;SDS011;6085;49.452;8.502;2023-10-09T07:50:35;7.68;;;2.97;;
12048;SDS011;6085;49.452;8.502;2023-10-09T07:54:49;4.38;;;2.40;;
12048;SDS011;6085;49.452;8.502;2023-10-09T07:58:53;9.60;;;3.38;;
12048;SDS011;6085;49.452;8.502;2023-10-09T08:03:01;4.53;;;3.30;;
12048;SDS011;6085;49.452;8.502;2023-10-09T08:07:23;7.47;;;2.60;;
12048;SDS011;6085;49.452;8.502;2023-10-09T08:11:26;6.22;;;2.38;;
12048;SDS011;6085;49.452;8.502;2023-10-09T08:16:00;5.43;;;2.40;;
12048;SDS011;6085;49.452;8.502;2023-10-09T08:20:06;2.72;;;1.60;;
12048;SDS011;6085;49.452;8.502;2023-10-09T08:24:12;6.68;;;2.08;;
12048;SDS011;6085;49.452;8.502;2023-10-09T08:28:28;2.40;;;1.85;;
12048;SDS011;6085;49.452;8.502;2023-10-09T08:32:39;2.10;;;1.90;;
12048;SDS011;6085;49.452;8.502;2023-10-09T08:36:44;5.35;;;2.53;;
12048;SDS011;6085;49.452;8.502;2023-10-09T08:40:52;5.00;;;2.30;;
12048;SDS011;6085;49.452;8.502;2023-10-09T08:44:58;5.00;;;2.08;;
12048;SDS011;6085;49.452;8.502;2023-10-09T08:49:00;4.65;;;1.85;;
12048;SDS011;6085;49.452;8.502;2023-10-09T08:53:06;7.57;;;2.08;;
12048;SDS011;6085;49.452;8.502;2023-10-09T08:57:10;5.60;;;2.38;;
12048;SDS011;6085;49.452;8.502;2023-10-09T09:01:15;5.88;;;2.50;;
12048;SDS011;6085;49.452;8.502;2023-10-09T09:05:20;4.22;;;2.10;;
12048;SDS011;6085;49.452;8.502;2023-10-09T09:09:23;3.25;;;1.88;;
12048;SDS011;6085;49.452;8.502;2023-10-09T09:13:28;2.38;;;1.60;;
12048;SDS011;6085;49.452;8.502;2023-10-09T09:17:32;3.53;;;1.80;;
12048;SDS011;6085;49.452;8.502;2023-10-09T09:21:36;6.57;;;2.38;;
12048;SDS011;6085;49.452;8.502;2023-10-09T09:25:43;4.28;;;1.73;;
12048;SDS011;6085;49.452;8.502;2023-10-09T09:29:47;2.15;;;1.70;;
12048;SDS011;6085;49.452;8.502;2023-10-09T09:33:56;2.42;;;1.75;;
12048;SDS011;6085;49.452;8.502;2023-10-09T09:38:02;2.55;;;1.60;;
12048;SDS011;6085;49.452;8.502;2023-10-09T09:42:07;4.53;;;1.85;;
12048;SDS011;6085;49.452;8.502;2023-10-09T09:46:14;1.77;;;1.35;;
12048;SDS011;6085;49.452;8.502;2023-10-09T09:50:18;4.60;;;1.73;;
12048;SDS011;6085;49.452;8.502;2023-10-09T09:54:24;3.05;;;1.77;;
12048;SDS011;6085;49.452;8.502;2023-10-09T09:58:34;2.38;;;1.40;;
12048;SDS011;6085;49.452;8.502;2023-10-09T10:02:43;5.60;;;1.80;;
12048;SDS011;6085;49.452;8.502;2023-10-09T10:06:47;3.15;;;1.63;;
12048;SDS011;6085;49.452;8.502;2023-10-09T10:10:53;3.42;;;1.55;;
12048;SDS011;6085;49.452;8.502;2023-10-09T10:14:59;3.28;;;1.70;;
12048;SDS011;6085;49.452;8.502;2023-10-09T10:19:08;1.70;;;1.60;;
12048;SDS011;6085;49.452;8.502;2023-10-09T10:23:22;5.43;;;1.77;;
12048;SDS011;6085;49.452;8.502;2023-10-09T10:27:26;3.22;;;1.70;;
12048;SDS011;6085;49.452;8.502;2023-10-09T10:35:57;2.67;;;1.70;;
12048;SDS011;6085;49.452;8.502;2023-10-09T10:40:06;5.00;;;2.30;;
12048;SDS011;6085;49.452;8.502;2023-10-09T10:44:13;3.35;;;1.50;;
12048;SDS011;6085;49.452;8.502;2023-10-09T10:48:34;5.07;;;1.60;;
12048;SDS011;6085;49.452;8.502;2023-10-09T10:52:38;2.97;;;1.85;;
12048;SDS011;6085;49.452;8.502;2023-10-09T10:56:44;5.88;;;1.90;;
12048;SDS011;6085;49.452;8.502;2023-10-09T11:00:52;1.80;;;1.60;;
12048;SDS011;6085;49.452;8.502;2023-10-09T11:05:13;4.85;;;2.03;;
12048;SDS011;6085;49.452;8.502;2023-10-09T11:09:23;3.80;;;1.70;;
12048;SDS011;6085;49.452;8.502;2023-10-09T11:13:35;4.53;;;1.67;;
12048;SDS011;6085;49.452;8.502;2023-10-09T11:17:57;5.22;;;2.33;;
12048;SDS011;6085;49.452;8.502;2023-10-09T11:22:06;3.45;;;1.77;;
12048;SDS011;6085;49.452;8.502;2023-10-09T11:26:29;3.20;;;1.73;;
12048;SDS011;6085;49.452;8.502;2023-10-09T11:30:40;3.53;;;2.20;;
12048;SDS011;6085;49.452;8.502;2023-10-09T11:34:46;3.05;;;1.58;;
12048;SDS011;6085;49.452;8.502;2023-10-09T11:38:54;4.00;;;1.80;;
12048;SDS011;6085;49.452;8.502;2023-10-09T11:43:13;3.92;;;1.50;;
12048;SDS011;6085;49.452;8.502;2023-10-09T11:47:15;2.15;;;1.25;;
12048;SDS011;6085;49.452;8.502;2023-10-09T11:51:33;3.38;;;1.70;;
12048;SDS011;6085;49.452;8.502;2023-10-09T11:55:39;4.18;;;1.70;;
12048;SDS011;6085;49.452;8.502;2023-10-09T11:59:41;3.55;;;2.03;;
12048;SDS011;6085;49.452;8.502;2023-10-09T12:03:43;6.93;;;2.03;;
12048;SDS011;6085;49.452;8.502;2023-10-09T12:07:49;6.28;;;2.30;;
12048;SDS011;6085;49.452;8.502;2023-10-09T12:11:56;2.45;;;1.75;;
12048;SDS011;6085;49.452;8.502;2023-10-09T12:16:00;3.92;;;1.75;;
12048;SDS011;6085;49.452;8.502;2023-10-09T12:20:08;3.30;;;1.55;;
12048;SDS011;6085;49.452;8.502;2023-10-09T12:24:14;3.70;;;1.48;;
12048;SDS011;6085;49.452;8.502;2023-10-09T12:28:20;3.58;;;2.03;;
12048;SDS011;6085;49.452;8.502;2023-10-09T12:32:22;2.72;;;1.95;;
12048;SDS011;6085;49.452;8.502;2023-10-09T12:36:24;4.45;;;1.80;;
12048;SDS011;6085;49.452;8.502;2023-10-09T12:40:26;5.25;;;1.95;;
12048;SDS011;6085;49.452;8.502;2023-10-09T12:44:32;3.15;;;1.70;;
12048;SDS011;6085;49.452;8.502;2023-10-09T12:48:39;2.53;;;1.67;;
12048;SDS011;6085;49.452;8.502;2023-10-09T12:52:46;2.65;;;1.55;;
12048;SDS011;6085;49.452;8.502;2023-10-09T12:56:50;3.53;;;1.83;;
12048;SDS011;6085;49.452;8.502;2023-10-09T13:00:53;2.45;;;1.63;;
12048;SDS011;6085;49.452;8.502;2023-10-09T13:04:56;3.47;;;1.85;;
12048;SDS011;6085;49.452;8.502;2023-10-09T13:08:59;2.30;;;1.42;;
12048;SDS011;6085;49.452;8.502;2023-10-09T13:13:06;3.40;;;1.48;;
12048;SDS011;6085;49.452;8.502;2023-10-09T13:17:13;4.65;;;2.17;;
12048;SDS011;6085;49.452;8.502;2023-10-09T13:21:15;2.05;;;1.70;;
12048;SDS011;6085;49.452;8.502;2023-10-09T13:25:18;4.53;;;1.77;;
12048;SDS011;6085;49.452;8.502;2023-10-09T13:29:25;4.03;;;2.00;;
12048;SDS011;6085;49.452;8.502;2023-10-09T13:33:28;3.53;;;1.95;;
12048;SDS011;6085;49.452;8.502;2023-10-09T13:37:36;2.58;;;1.60;;
12048;SDS011;6085;49.452;8.502;2023-10-09T13:41:38;5.15;;;1.90;;
12048;SDS011;6085;49.452;8.502;2023-10-09T13:45:42;4.88;;;1.73;;
12048;SDS011;6085;49.452;8.502;2023-10-09T13:49:51;3.05;;;2.10;;
12048;SDS011;6085;49.452;8.502;2023-10-09T13:53:53;3.60;;;2.28;;
12048;SDS011;6085;49.452;8.502;2023-10-09T13:57:55;2.38;;;1.90;;
12048;SDS011;6085;49.452;8.502;2023-10-09T14:01:57;4.18;;;1.60;;
12048;SDS011;6085;49.452;8.502;2023-10-09T14:06:04;2.72;;;1.70;;
12048;SDS011;6085;49.452;8.502;2023-10-09T14:10:12;2.65;;;2.10;;
12048;SDS011;6085;49.452;8.502;2023-10-09T14:14:18;5.70;;;1.90;;
12048;SDS011;6085;49.452;8.502;2023-10-09T14:18:25;2.83;;;1.52;;
12048;SDS011;6085;49.452;8.502;2023-10-09T14:22:31;4.82;;;2.30;;
12048;SDS011;6085;49.452;8.502;2023-10-09T14:26:38;1.85;;;1.70;;
12048;SDS011;6085;49.452;8.502;2023-10-09T14:30:40;3.60;;;2.30;;
12048;SDS011;6085;49.452;8.502;2023-10-09T14:34:45;2.90;;;1.80;;
12048;SDS011;6085;49.452;8.502;2023-10-09T14:38:51;4.50;;;1.85;;
12048;SDS011;6085;49.452;8.502;2023-10-09T14:42:54;5.40;;;1.95;;
12048;SDS011;6085;49.452;8.502;2023-10-09T14:46:58;3.33;;;2.00;;
12048;SDS011;6085;49.452;8.502;2023-10-09T14:51:00;2.58;;;1.70;;
12048;SDS011;6085;49.452;8.502;2023-10-09T14:55:06;3.88;;;1.80;;
12048;SDS011;6085;49.452;8.502;2023-10-09T14:59:09;5.00;;;1.67;;
12048;SDS011;6085;49.452;8.502;2023-10-09T15:03:12;3.42;;;1.52;;
12048;SDS011;6085;49.452;8.502;2023-10-09T15:07:14;1.70;;;1.60;;
12048;SDS011;6085;49.452;8.502;2023-10-09T15:11:20;3.65;;;2.28;;
12048;SDS011;6085;49.452;8.502;2023-10-09T15:15:23;2.35;;;1.80;;
12048;SDS011;6085;49.452;8.502;2023-10-09T15:19:28;3.15;;;2.13;;
12048;SDS011;6085;49.452;8.502;2023-10-09T15:23:30;2.55;;;1.90;;
12048;SDS011;6085;49.452;8.502;2023-10-09T15:27:33;3.28;;;1.73;;
12048;SDS011;6085;49.452;8.502;2023-10-09T15:31:39;3.85;;;2.15;;
12048;SDS011;6085;49.452;8.502;2023-10-09T15:35:42;2.63;;;1.92;;
12048;SDS011;6085;49.452;8.502;2023-10-09T15:39:46;3.08;;;2.08;;
12048;SDS011;6085;49.452;8.502;2023-10-09T15:43:51;3.20;;;2.13;;
12048;SDS011;6085;49.452;8.502;2023-10-09T15:47:53;4.25;;;2.28;;
12048;SDS011;6085;49.452;8.502;2023-10-09T15:51:55;3.97;;;1.90;;
12048;SDS011;6085;49.452;8.502;2023-10-09T15:55:58;2.83;;;1.80;;
12048;SDS011;6085;49.452;8.502;2023-10-09T16:00:04;3.17;;;1.92;;
12048;SDS011;6085;49.452;8.502;2023-10-09T16:04:13;4.72;;;2.15;;
12048;SDS011;6085;49.452;8.502;2023-10-09T16:08:15;2.97;;;1.58;;
12048;SDS011;6085;49.452;8.502;2023-10-09T16:12:19;2.63;;;1.88;;
12048;SDS011;6085;49.452;8.502;2023-10-09T16:16:26;2.17;;;1.55;;
12048;SDS011;6085;49.452;8.502;2023-10-09T16:20:34;1.88;;;1.60;;
12048;SDS011;6085;49.452;8.502;2023-10-09T16:24:37;3.65;;;1.55;;
12048;SDS011;6085;49.452;8.502;2023-10-09T16:28:40;3.35;;;1.58;;
12048;SDS011;6085;49.452;8.502;2023-10-09T16:32:45;2.58;;;1.85;;
12048;SDS011;6085;49.452;8.502;2023-10-09T16:36:47;2.33;;;1.27;;
12048;SDS011;6085;49.452;8.502;2023-10-09T16:40:52;2.38;;;1.85;;
12048;SDS011;6085;49.452;8.502;2023-10-09T16:45:02;2.15;;;1.95;;
12048;SDS011;6085;49.452;8.502;2023-10-09T16:49:13;3.55;;;1.90;;
12048;SDS011;6085;49.452;8.502;2023-10-09T16:53:18;3.42;;;1.70;;
12048;SDS011;6085;49.452;8.502;2023-10-09T16:57:21;1.95;;;1.63;;
12048;SDS011;6085;49.452;8.502;2023-10-09T17:01:24;3.00;;;1.75;;
12048;SDS011;6085;49.452;8.502;2023-10-09T17:05:29;2.53;;;1.83;;
12048;SDS011;6085;49.452;8.502;2023-10-09T17:09:33;2.95;;;1.90;;
12048;SDS011;6085;49.452;8.502;2023-10-09T17:13:35;2.67;;;1.98;;
12048;SDS011;6085;49.452;8.502;2023-10-09T17:17:37;4.97;;;2.40;;
12048;SDS011;6085;49.452;8.502;2023-10-09T17:21:41;1.95;;;1.65;;
12048;SDS011;6085;49.452;8.502;2023-10-09T17:25:43;3.78;;;2.20;;
12048;SDS011;6085;49.452;8.502;2023-10-09T17:29:45;3.20;;;1.92;;
12048;SDS011;6085;49.452;8.502;2023-10-09T17:33:47;3.78;;;1.67;;
12048;SDS011;6085;49.452;8.502;2023-10-09T17:37:51;3.65;;;2.33;;
12048;SDS011;6085;49.452;8.502;2023-10-09T17:41:54;3.70;;;2.05;;
12048;SDS011;6085;49.452;8.502;2023-10-09T17:45:56;5.03;;;2.08;;
12048;SDS011;6085;49.452;8.502;2023-10-09T17:49:58;2.53;;;1.80;;
12048;SDS011;6085;49.452;8.502;2023-10-09T17:54:02;3.05;;;2.20;;
12048;SDS011;6085;49.452;8.502;2023-10-09T17:58:04;4.50;;;2.25;;
12048;SDS011;6085;49.452;8.502;2023-10-09T18:02:07;2.67;;;1.92;;
12048;SDS011;6085;49.452;8.502;2023-10-09T18:06:09;4.35;;;2.30;;
12048;SDS011;6085;49.452;8.502;2023-10-09T18:10:14;2.95;;;1.65;;
12048;SDS011;6085;49.452;8.502;2023-10-09T18:14:17;2.70;;;1.80;;
12048;SDS011;6085;49.452;8.502;2023-10-09T18:18:19;2.30;;;1.70;;
12048;SDS011;6085;49.452;8.502;2023-10-09T18:22:22;2.35;;;1.65;;
12048;SDS011;6085;49.452;8.502;2023-10-09T18:26:26;1.48;;;1.30;;
12048;SDS011;6085;49.452;8.502;2023-10-09T18:30:30;6.95;;;1.73;;
12048;SDS011;6085;49.452;8.502;2023-10-09T18:34:32;6.47;;;2.40;;
12048;SDS011;6085;49.452;8.502;2023-10-09T18:38:34;3.20;;;2.70;;
12048;SDS011;6085;49.452;8.502;2023-10-09T18:42:39;5.78;;;2.70;;
12048;SDS011;6085;49.452;8.502;2023-10-09T18:46:41;5.15;;;2.38;;
12048;SDS011;6085;49.452;8.502;2023-10-09T18:50:43;3.22;;;2.13;;
12048;SDS011;6085;49.452;8.502;2023-10-09T18:54:45;4.95;;;2.13;;
12048;SDS011;6085;49.452;8.502;2023-10-09T18:58:49;3.42;;;2.33;;
12048;SDS011;6085;49.452;8.502;2023-10-09T19:02:51;4.20;;;2.13;;
12048;SDS011;6085;49.452;8.502;2023-10-09T19:06:53;3.50;;;2.38;;
12048;SDS011;6085;49.452;8.502;2023-10-09T19:10:58;4.18;;;2.60;;
12048;SDS011;6085;49.452;8.502;2023-10-09T19:15:02;5.22;;;2.95;;
12048;SDS011;6085;49.452;8.502;2023-10-09T19:19:06;4.13;;;2.58;;
12048;SDS011;6085;49.452;8.502;2023-10-09T19:23:08;4.68;;;2.95;;
12048;SDS011;6085;49.452;8.502;2023-10-09T19:27:11;2.70;;;2.25;;
12048;SDS011;6085;49.452;8.502;2023-10-09T19:31:15;3.30;;;2.15;;
12048;SDS011;6085;49.452;8.502;2023-10-09T19:35:17;5.45;;;2.67;;
12048;SDS011;6085;49.452;8.502;2023-10-09T19:39:19;7.70;;;2.53;;
12048;SDS011;6085;49.452;8.502;2023-10-09T19:43:22;4.20;;;2.60;;
12048;SDS011;6085;49.452;8.502;2023-10-09T19:47:26;3.90;;;2.13;;
12048;SDS011;6085;49.452;8.502;2023-10-09T19:51:28;4.97;;;2.35;;
12048;SDS011;6085;49.452;8.502;2023-10-09T19:55:31;5.97;;;2.20;;
12048;SDS011;6085;49.452;8.502;2023-10-09T19:59:33;2.72;;;1.80;;
12048;SDS011;6085;49.452;8.502;2023-10-09T20:03:38;4.60;;;2.75;;
12048;SDS011;6085;49.452;8.502;2023-10-09T20:07:45;4.40;;;2.45;;
12048;SDS011;6085;49.452;8.502;2023-10-09T20:11:47;4.20;;;2.50;;
12048;SDS011;6085;49.452;8.502;2023-10-09T20:15:54;3.00;;;1.95;;
12048;SDS011;6085;49.452;8.502;2023-10-09T20:19:58;4.90;;;2.85;;
12048;SDS011;6085;49.452;8.502;2023-10-09T20:24:03;4.30;;;2.35;;
12048;SDS011;6085;49.452;8.502;2023-10-09T20:28:06;4.00;;;2.67;;
12048;SDS011;6085;49.452;8.502;2023-10-09T20:32:11;2.60;;;2.00;;
12048;SDS011;6085;49.452;8.502;2023-10-09T20:36:15;4.63;;;2.50;;
12048;SDS011;6085;49.452;8.502;2023-10-09T20:40:18;4.53;;;2.33;;
12048;SDS011;6085;49.452;8.502;2023-10-09T20:44:21;2.83;;;2.25;;
12048;SDS011;6085;49.452;8.502;2023-10-09T20:48:23;3.17;;;2.28;;
12048;SDS011;6085;49.452;8.502;2023-10-09T20:52:27;3.67;;;2.20;;
12048;SDS011;6085;49.452;8.502;2023-10-09T20:56:28;4.28;;;2.67;;
12048;SDS011;6085;49.452;8.502;2023-10-09T21:00:31;4.93;;;2.53;;
12048;SDS011;6085;49.452;8.502;2023-10-09T21:04:37;3.33;;;2.55;;
12048;SDS011;6085;49.452;8.502;2023-10-09T21:08:42;4.25;;;2.25;;
12048;SDS011;6085;49.452;8.502;2023-10-09T21:12:45;4.47;;;2.92;;
12048;SDS011;6085;49.452;8.502;2023-10-09T21:16:48;3.15;;;2.13;;
12048;SDS011;6085;49.452;8.502;2023-10-09T21:20:51;2.65;;;2.17;;
12048;SDS011;6085;49.452;8.502;2023-10-09T21:24:55;3.88;;;2.60;;
12048;SDS011;6085;49.452;8.502;2023-10-09T21:28:57;3.17;;;2.53;;
12048;SDS011;6085;49.452;8.502;2023-10-09T21:32:59;2.60;;;2.10;;
12048;SDS011;6085;49.452;8.502;2023-10-09T21:37:01;4.13;;;2.72;;
12048;SDS011;6085;49.452;8.502;2023-10-09T21:41:09;2.88;;;2.63;;
12048;SDS011;6085;49.452;8.502;2023-10-09T21:45:12;6.72;;;2.75;;
12048;SDS011;6085;49.452;8.502;2023-10-09T21:49:14;3.00;;;2.70;;
12048;SDS011;6085;49.452;8.502;2023-10-09T21:53:16;4.93;;;2.83;;
12048;SDS011;6085;49.452;8.502;2023-10-09T21:57:20;3.85;;;2.15;;
12048;SDS011;6085;49.452;8.502;2023-10-09T22:01:22;4.53;;;2.45;;
12048;SDS011;6085;49.452;8.502;2023-10-09T22:05:27;4.45;;;2.88;;
12048;SDS011;6085;49.452;8.502;2023-10-09T22:09:31;2.75;;;1.98;;
12048;SDS011;6085;49.452;8.502;2023-10-09T22:13:37;3.70;;;2.58;;
12048;SDS011;6085;49.452;8.502;2023-10-09T22:17:42;3.58;;;2.40;;
12048;SDS011;6085;49.452;8.502;2023-10-09T22:21:45;2.47;;;2.15;;
12048;SDS011;6085;49.452;8.502;2023-10-09T22:25:47;5.03;;;1.98;;
12048;SDS011;6085;49.452;8.502;2023-10-09T22:30:01;3.47;;;2.55;;
12048;SDS011;6085;49.452;8.502;2023-10-09T22:34:12;4.07;;;2.33;;
12048;SDS011;6085;49.452;8.502;2023-10-09T22:38:15;7.93;;;2.70;;
12048;SDS011;6085;49.452;8.502;2023-10-09T22:42:21;4.35;;;2.53;;
12048;SDS011;6085;49.452;8.502;2023-10-09T22:46:25;5.30;;;2.80;;
12048;SDS011;6085;49.452;8.502;2023-10-09T22:50:27;3.95;;;2.78;;
12048;SDS011;6085;49.452;8.502;2023-10-09T22:54:34;4.78;;;2.90;;
12048;SDS011;6085;49.452;8.502;2023-10-09T22:58:36;4.45;;;2.70;;
12048;SDS011;6085;49.452;8.502;2023-10-09T23:02:39;4.28;;;3.40;;
12048;SDS011;6085;49.452;8.502;2023-10-09T23:06:56;5.30;;;2.97;;
12048;SDS011;6085;49.452;8.502;2023-10-09T23:11:12;4.53;;;2.63;;
12048;SDS011;6085;49.452;8.502;2023-10-09T23:15:14;4.07;;;2.65;;
12048;SDS011;6085;49.452;8.502;2023-10-09T23:19:34;3.63;;;2.80;;
12048;SDS011;6085;49.452;8.502;2023-10-09T23:23:44;4.90;;;2.60;;
12048;SDS011;6085;49.452;8.502;2023-10-09T23:27:49;3.47;;;2.60;;
12048;SDS011;6085;49.452;8.502;2023-10-09T23:32:14;3.80;;;2.72;;
12048;SDS011;6085;49.452;8.502;2023-10-09T23:36:33;4.00;;;2.92;;
12048;SDS011;6085;49.452;8.502;2023-10-09T23:40:42;3.63;;;2.40;;
12048;SDS011;6085;49.452;8.502;2023-10-09T23:44:44;5.97;;;2.83;;
12048;SDS011;6085;49.452;8.502;2023-10-09T23:48:47;6.07;;;2.88;;
12048;SDS011;6085;49.452;8.502;2023-10-09T23:52:54;5.65;;;3.10;;
12048;SDS011;6085;49.452;8.502;2023-10-09T23:56:57;5.95;;;2.92;;
